METAR Data
IDs: Format: Raw Decoded Include TAF

Data at: 2006 UTC 26 Sep 2021

KFCM 261953Z 16005KT 10SM CLR 27/13 A2967 RMK AO2 SLP044 T02670128